createdAt,value
2022-07-27T00:01:41.360Z,14.64
2022-07-27T00:04:18.366Z,14.67
2022-07-27T00:06:44.882Z,14.62
2022-07-27T00:09:11.902Z,14.66
2022-07-27T00:11:38.631Z,14.61
2022-07-27T00:14:05.138Z,14.49
2022-07-27T00:16:31.717Z,14.56
2022-07-27T00:18:58.148Z,14.54
2022-07-27T00:21:26.620Z,14.49
2022-07-27T00:23:54.532Z,14.45
2022-07-27T00:26:21.356Z,14.43
2022-07-27T00:28:48.364Z,14.41
2022-07-27T00:31:15.570Z,14.34
2022-07-27T00:33:42.144Z,14.36
2022-07-27T00:36:08.763Z,14.35
2022-07-27T00:38:35.165Z,14.34
2022-07-27T00:41:01.676Z,14.34
2022-07-27T00:43:28.120Z,14.31
2022-07-27T00:45:54.562Z,14.31
2022-07-27T00:48:21.101Z,14.33
2022-07-27T00:50:48.324Z,14.30
2022-07-27T00:53:15.418Z,14.29
2022-07-27T00:55:42.409Z,14.26
2022-07-27T00:58:09.036Z,14.25
2022-07-27T01:00:37.293Z,14.24
2022-07-27T01:03:09.231Z,14.25
2022-07-27T01:05:37.899Z,14.26
2022-07-27T01:08:12.152Z,14.25
2022-07-27T01:10:40.001Z,14.30
2022-07-27T01:13:06.399Z,14.29
2022-07-27T01:15:42.410Z,14.25
2022-07-27T01:18:13.471Z,14.29
2022-07-27T01:20:41.643Z,14.32
2022-07-27T01:23:09.225Z,14.34
2022-07-27T01:25:36.755Z,14.38
2022-07-27T01:28:03.269Z,14.42
2022-07-27T01:30:30.527Z,14.47
2022-07-27T01:33:01.760Z,14.50
2022-07-27T01:35:29.490Z,14.54
2022-07-27T01:37:56.518Z,14.55
2022-07-27T01:40:23.178Z,14.59
2022-07-27T01:42:49.946Z,14.66
2022-07-27T01:45:16.684Z,14.67
2022-07-27T01:47:43.166Z,14.71
2022-07-27T01:50:10.156Z,14.75
2022-07-27T01:52:36.638Z,14.83
2022-07-27T01:55:03.201Z,14.96
2022-07-27T01:57:29.588Z,14.98
2022-07-27T01:59:55.983Z,14.95
2022-07-27T02:02:22.356Z,14.91
2022-07-27T02:04:48.771Z,14.87
2022-07-27T02:07:15.208Z,14.81
2022-07-27T02:09:41.609Z,14.77
2022-07-27T02:12:26.773Z,14.73
2022-07-27T02:14:53.162Z,14.75
2022-07-27T02:17:21.135Z,14.75
2022-07-27T02:19:48.585Z,14.75
2022-07-27T02:22:14.993Z,14.74
2022-07-27T02:24:41.419Z,14.77
2022-07-27T02:27:07.960Z,14.77
2022-07-27T02:29:34.480Z,14.82
2022-07-27T02:32:00.910Z,14.79
2022-07-27T02:34:27.433Z,14.69
2022-07-27T02:36:53.828Z,14.55
2022-07-27T02:39:20.247Z,14.45
2022-07-27T02:41:47.634Z,14.30
2022-07-27T02:44:18.456Z,14.27
2022-07-27T02:46:44.961Z,14.23
2022-07-27T02:49:11.722Z,14.23
2022-07-27T02:51:39.492Z,14.23
2022-07-27T02:54:07.576Z,14.19
2022-07-27T02:56:34.011Z,14.20
2022-07-27T02:59:00.409Z,14.19
2022-07-27T03:01:27.058Z,14.16
2022-07-27T03:03:53.702Z,14.12
2022-07-27T03:06:20.210Z,14.17
2022-07-27T03:08:46.605Z,14.13
2022-07-27T03:11:15.686Z,14.06
2022-07-27T03:13:42.268Z,14.08
2022-07-27T03:16:08.697Z,14.05
2022-07-27T03:18:35.533Z,14.03
2022-07-27T03:21:02.049Z,14.04
2022-07-27T03:23:28.483Z,14.05
2022-07-27T03:25:54.885Z,14.11
2022-07-27T03:28:21.371Z,14.17
2022-07-27T03:30:47.837Z,14.23
2022-07-27T03:33:14.334Z,14.32
2022-07-27T03:35:40.748Z,14.32
2022-07-27T03:38:07.139Z,14.34
2022-07-27T03:40:37.993Z,14.30
2022-07-27T03:43:04.411Z,14.34
2022-07-27T03:45:30.976Z,14.29
2022-07-27T03:47:57.553Z,14.21
2022-07-27T03:50:24.081Z,14.07
2022-07-27T03:52:51.847Z,14.01
2022-07-27T03:55:21.776Z,13.94
2022-07-27T03:57:48.334Z,13.87
2022-07-27T04:00:15.864Z,13.84
2022-07-27T04:02:42.354Z,13.83
2022-07-27T04:05:10.280Z,13.83
2022-07-27T04:07:36.722Z,13.86
2022-07-27T04:10:04.324Z,13.86
2022-07-27T04:12:30.785Z,13.81
2022-07-27T04:14:58.558Z,13.78
2022-07-27T04:17:55.778Z,13.70
2022-07-27T04:20:11.645Z,13.73
2022-07-27T04:22:38.309Z,13.74
2022-07-27T04:25:05.362Z,13.76
2022-07-27T04:27:32.166Z,13.75
2022-07-27T04:29:58.601Z,13.77
2022-07-27T04:32:25.009Z,13.75
2022-07-27T04:34:51.567Z,13.79
2022-07-27T04:37:18.009Z,13.81
2022-07-27T04:39:44.545Z,13.79
2022-07-27T04:42:10.969Z,13.82
2022-07-27T04:44:37.469Z,13.78
2022-07-27T04:47:03.990Z,13.78
2022-07-27T04:49:30.434Z,13.84
2022-07-27T04:51:56.893Z,13.86
2022-07-27T04:54:23.327Z,13.87
2022-07-27T04:56:49.786Z,13.84
2022-07-27T04:59:16.190Z,13.85
2022-07-27T05:01:42.755Z,13.87
2022-07-27T05:04:09.364Z,13.90
2022-07-27T05:06:35.874Z,13.95
2022-07-27T05:09:02.354Z,13.88
2022-07-27T05:11:28.878Z,13.87
2022-07-27T05:13:55.400Z,13.89
2022-07-27T05:16:25.199Z,13.87
2022-07-27T05:18:54.827Z,13.96
2022-07-27T05:21:21.271Z,13.99
2022-07-27T05:23:47.823Z,14.07
2022-07-27T05:26:14.409Z,14.13
2022-07-27T05:28:40.810Z,14.16
2022-07-27T05:31:07.240Z,14.21
2022-07-27T05:33:34.265Z,14.26
2022-07-27T05:36:00.700Z,14.34
2022-07-27T05:38:27.388Z,14.45
2022-07-27T05:40:53.806Z,14.46
2022-07-27T05:43:20.219Z,14.61
2022-07-27T05:45:46.984Z,14.73
2022-07-27T05:48:13.470Z,14.83
2022-07-27T05:50:39.903Z,14.92
2022-07-27T05:53:06.395Z,14.90
2022-07-27T05:55:33.487Z,15.00
2022-07-27T05:57:59.864Z,14.96
2022-07-27T06:00:26.290Z,14.94
2022-07-27T06:02:52.844Z,14.99
2022-07-27T06:05:19.363Z,15.04
2022-07-27T06:08:03.368Z,15.12
2022-07-27T06:10:32.296Z,15.14
2022-07-27T06:13:01.423Z,15.13
2022-07-27T06:15:27.977Z,15.16
2022-07-27T06:17:54.454Z,15.21
2022-07-27T06:20:22.237Z,15.23
2022-07-27T06:22:54.905Z,15.27
2022-07-27T06:25:22.924Z,15.30
2022-07-27T06:28:00.255Z,15.31
2022-07-27T06:30:26.759Z,15.35
2022-07-27T06:32:53.192Z,15.29
2022-07-27T06:35:20.647Z,15.22
2022-07-27T06:37:52.113Z,15.28
2022-07-27T06:40:19.240Z,15.42
2022-07-27T06:42:45.676Z,15.53
2022-07-27T06:45:12.681Z,15.67
2022-07-27T06:47:48.811Z,15.82
2022-07-27T06:50:17.775Z,16.05
2022-07-27T06:52:44.356Z,16.28
2022-07-27T06:55:10.773Z,16.42
2022-07-27T06:57:37.379Z,16.51
2022-07-27T07:00:06.401Z,16.48
2022-07-27T07:02:32.869Z,16.41
2022-07-27T07:04:59.256Z,16.37
2022-07-27T07:07:25.671Z,16.43
2022-07-27T07:09:52.190Z,16.49
2022-07-27T07:12:19.013Z,16.58
2022-07-27T07:14:46.064Z,16.59
2022-07-27T07:17:12.688Z,16.55
2022-07-27T07:19:39.304Z,16.53
2022-07-27T07:22:05.771Z,16.58
2022-07-27T07:24:32.225Z,16.70
2022-07-27T07:26:58.753Z,16.79
2022-07-27T07:29:25.323Z,16.78
2022-07-27T07:31:51.996Z,16.78
2022-07-27T07:34:18.477Z,16.73
2022-07-27T07:36:46.130Z,16.64
2022-07-27T07:39:12.803Z,16.66
2022-07-27T07:41:39.675Z,16.66
2022-07-27T07:44:06.655Z,16.57
2022-07-27T07:46:33.309Z,16.46
2022-07-27T07:48:59.820Z,16.37
2022-07-27T07:51:26.268Z,16.24
2022-07-27T07:53:52.708Z,16.13
2022-07-27T07:56:19.196Z,16.07
2022-07-27T07:58:45.689Z,16.03
2022-07-27T08:01:13.192Z,16.02
2022-07-27T08:03:39.648Z,16.00
2022-07-27T08:06:08.335Z,15.99
2022-07-27T08:08:34.779Z,16.09
2022-07-27T08:11:01.367Z,16.31
2022-07-27T08:13:27.999Z,16.49
2022-07-27T08:15:54.579Z,16.68
2022-07-27T08:18:21.232Z,16.85
2022-07-27T08:20:47.672Z,17.02
2022-07-27T08:23:14.148Z,17.17
2022-07-27T08:25:40.734Z,17.34
2022-07-27T08:28:07.645Z,17.54
2022-07-27T08:30:34.620Z,17.65
2022-07-27T08:33:04.068Z,17.75
2022-07-27T08:35:32.749Z,17.98
2022-07-27T08:38:00.656Z,18.10
2022-07-27T08:40:39.610Z,18.10
2022-07-27T08:43:09.147Z,18.16
2022-07-27T08:45:37.306Z,18.21
2022-07-27T08:48:04.411Z,18.21
2022-07-27T08:50:31.209Z,18.09
2022-07-27T08:53:05.543Z,17.94
2022-07-27T08:55:34.384Z,17.82
2022-07-27T08:58:03.501Z,17.81
2022-07-27T09:00:30.775Z,17.95
2022-07-27T09:02:58.171Z,18.10
2022-07-27T09:05:24.874Z,18.13
2022-07-27T09:07:51.579Z,17.96
2022-07-27T09:10:31.732Z,17.84
2022-07-27T09:12:58.542Z,17.80
2022-07-27T09:15:33.942Z,17.79
2022-07-27T09:18:01.082Z,17.73
2022-07-27T09:20:27.535Z,17.73
2022-07-27T09:22:56.124Z,17.73
2022-07-27T09:26:00.416Z,17.74
2022-07-27T09:28:29.021Z,17.74
2022-07-27T09:30:55.450Z,17.77
2022-07-27T09:33:21.868Z,17.75
2022-07-27T09:35:58.547Z,17.72
2022-07-27T09:38:25.100Z,17.76
2022-07-27T09:41:06.860Z,17.78
2022-07-27T09:46:45.490Z,17.98
2022-07-27T09:49:32.228Z,17.97
2022-07-27T09:52:02.032Z,18.03
2022-07-27T09:54:43.457Z,18.02
2022-07-27T09:57:10.133Z,18.01
2022-07-27T09:59:36.552Z,17.97
2022-07-27T10:02:03.199Z,18.01
2022-07-27T10:04:33.235Z,18.08
2022-07-27T10:07:04.392Z,18.13
2022-07-27T10:09:33.813Z,18.10
2022-07-27T10:12:01.760Z,18.12
2022-07-27T10:14:28.286Z,18.19
2022-07-27T10:16:55.119Z,18.40
2022-07-27T10:19:32.912Z,18.56
2022-07-27T10:22:00.412Z,18.61
2022-07-27T10:24:31.540Z,18.69
2022-07-27T10:26:58.536Z,18.67
2022-07-27T10:29:25.781Z,18.67
2022-07-27T10:31:52.148Z,18.73
2022-07-27T10:34:35.894Z,18.70
2022-07-27T10:37:08.050Z,18.73
2022-07-27T10:39:38.086Z,18.72
2022-07-27T10:42:26.017Z,18.80
2022-07-27T10:44:54.965Z,18.64
2022-07-27T10:47:49.170Z,18.78
2022-07-27T10:50:15.535Z,18.77
2022-07-27T10:53:04.816Z,18.58
2022-07-27T10:55:36.992Z,18.78
2022-07-27T10:58:03.440Z,19.01
2022-07-27T11:00:53.699Z,19.16
2022-07-27T11:03:25.206Z,19.24
2022-07-27T11:06:31.394Z,19.31
2022-07-27T11:09:27.200Z,19.31
2022-07-27T11:11:40.911Z,19.37
2022-07-27T11:14:07.455Z,19.49
2022-07-27T11:16:43.041Z,19.56
2022-07-27T11:19:10.042Z,19.58
2022-07-27T11:21:38.755Z,19.66
2022-07-27T11:24:15.078Z,19.67
2022-07-27T11:26:50.309Z,19.51
2022-07-27T11:29:18.144Z,19.70
2022-07-27T11:32:02.261Z,19.71
2022-07-27T11:34:30.973Z,19.59
2022-07-27T11:37:01.806Z,19.39
2022-07-27T11:42:18.813Z,18.70
2022-07-27T11:44:48.543Z,18.57
2022-07-27T11:47:19.601Z,18.48
2022-07-27T11:49:46.680Z,18.51
2022-07-27T11:52:17.247Z,18.58
2022-07-27T11:54:43.726Z,18.54
2022-07-27T11:57:12.956Z,18.54
2022-07-27T11:59:41.418Z,18.68
2022-07-27T12:02:12.868Z,18.92
2022-07-27T12:04:41.691Z,19.03
2022-07-27T12:07:11.504Z,18.89
2022-07-27T12:09:43.537Z,18.73
2022-07-27T12:12:13.922Z,18.65
2022-07-27T12:14:46.462Z,18.61
2022-07-27T12:17:19.074Z,18.58
2022-07-27T12:20:12.861Z,18.56
2022-07-27T12:22:53.742Z,18.49
2022-07-27T12:25:23.703Z,18.48
2022-07-27T12:28:05.165Z,18.38
2022-07-27T12:30:40.659Z,18.50
2022-07-27T12:33:25.702Z,18.55
2022-07-27T12:35:52.181Z,18.51
2022-07-27T12:38:18.826Z,18.58
2022-07-27T12:40:48.522Z,18.48
2022-07-27T12:43:20.651Z,18.63
2022-07-27T12:45:49.344Z,18.60
2022-07-27T12:48:24.781Z,18.59
2022-07-27T12:51:03.075Z,18.65
2022-07-27T12:53:30.871Z,18.69
2022-07-27T12:56:00.416Z,18.78
2022-07-27T12:58:27.216Z,19.03
2022-07-27T13:00:54.689Z,19.18
2022-07-27T13:03:21.271Z,19.37
2022-07-27T13:05:47.672Z,19.50
2022-07-27T13:08:16.749Z,19.57
2022-07-27T13:10:44.534Z,19.64
2022-07-27T13:13:11.492Z,19.71
2022-07-27T13:15:38.033Z,19.79
2022-07-27T13:18:04.555Z,19.87
2022-07-27T13:20:31.610Z,20.00
2022-07-27T13:22:58.089Z,19.98
2022-07-27T13:25:24.607Z,19.81
2022-07-27T13:27:51.232Z,19.87
2022-07-27T13:30:19.376Z,19.83
2022-07-27T13:32:48.958Z,19.71
2022-07-27T13:35:16.978Z,19.78
2022-07-27T13:37:44.813Z,19.79
2022-07-27T13:40:11.614Z,19.87
2022-07-27T13:42:39.747Z,19.93
2022-07-27T13:45:10.291Z,19.99
2022-07-27T13:47:38.744Z,19.98
2022-07-27T13:50:05.982Z,19.90
2022-07-27T13:52:32.465Z,19.89
2022-07-27T13:54:58.882Z,19.88
2022-07-27T13:57:25.314Z,19.88
2022-07-27T13:59:52.187Z,19.95
2022-07-27T14:02:22.837Z,19.89
2022-07-27T14:04:51.691Z,19.98
2022-07-27T14:07:18.114Z,19.99
2022-07-27T14:10:03.505Z,19.95
2022-07-27T14:12:29.980Z,20.00
2022-07-27T14:14:56.466Z,19.98
2022-07-27T14:17:23.159Z,19.88
2022-07-27T14:19:49.691Z,19.92
2022-07-27T14:22:16.223Z,19.99
2022-07-27T14:24:42.690Z,19.87
2022-07-27T14:27:09.991Z,19.96
2022-07-27T14:29:36.427Z,19.89
2022-07-27T14:32:02.979Z,19.76
2022-07-27T14:34:29.535Z,19.78
2022-07-27T14:36:56.092Z,19.56
2022-07-27T14:39:22.802Z,19.36
2022-07-27T14:41:49.318Z,19.35
2022-07-27T14:44:18.679Z,19.43
2022-07-27T14:46:46.384Z,19.54
2022-07-27T14:49:14.704Z,19.62
2022-07-27T14:51:41.451Z,19.83
2022-07-27T14:54:08.000Z,20.08
2022-07-27T14:56:36.451Z,20.17
2022-07-27T14:59:03.838Z,20.09
2022-07-27T15:01:30.320Z,19.75
2022-07-27T15:03:56.935Z,19.73
2022-07-27T15:06:23.589Z,19.65
2022-07-27T15:08:50.077Z,19.55
2022-07-27T15:11:16.720Z,19.43
2022-07-27T15:13:43.211Z,19.42
2022-07-27T15:16:09.866Z,19.60
2022-07-27T15:18:38.697Z,19.59
2022-07-27T15:21:13.041Z,19.45
2022-07-27T15:23:41.943Z,19.35
2022-07-27T15:26:08.650Z,19.39
2022-07-27T15:28:36.327Z,19.39
2022-07-27T15:31:02.903Z,19.48
2022-07-27T15:33:29.359Z,19.45
2022-07-27T15:35:56.428Z,19.35
2022-07-27T15:38:23.028Z,19.31
2022-07-27T15:40:50.096Z,19.20
2022-07-27T15:43:18.096Z,19.04
2022-07-27T15:45:48.210Z,18.96
2022-07-27T15:48:16.153Z,19.04
2022-07-27T15:50:46.290Z,19.13
2022-07-27T15:53:14.180Z,19.32
2022-07-27T15:55:43.047Z,19.40
2022-07-27T15:58:09.897Z,19.41
2022-07-27T16:00:40.914Z,19.39
2022-07-27T16:03:08.394Z,19.37
2022-07-27T16:05:35.095Z,19.36
2022-07-27T16:08:01.587Z,19.30
2022-07-27T16:10:29.873Z,19.20
2022-07-27T16:12:56.977Z,19.12
2022-07-27T16:15:43.425Z,19.06
2022-07-27T16:18:10.214Z,18.95
2022-07-27T16:20:36.834Z,19.01
2022-07-27T16:23:18.743Z,19.06
2022-07-27T16:26:07.533Z,19.13
2022-07-27T16:28:39.114Z,18.98
2022-07-27T16:31:07.811Z,19.07
2022-07-27T16:33:34.425Z,19.07
2022-07-27T16:36:00.914Z,19.01
2022-07-27T16:38:27.581Z,18.82
2022-07-27T16:40:54.051Z,18.79
2022-07-27T16:43:20.475Z,18.65
2022-07-27T16:45:46.933Z,18.56
2022-07-27T16:48:13.488Z,18.54
2022-07-27T16:50:40.444Z,18.55
2022-07-27T16:53:07.402Z,18.62
2022-07-27T16:55:33.858Z,18.73
2022-07-27T16:58:00.317Z,18.84
2022-07-27T17:00:26.854Z,18.90
2022-07-27T17:02:53.292Z,18.99
2022-07-27T17:05:19.835Z,18.96
2022-07-27T17:07:48.307Z,18.83
2022-07-27T17:10:26.657Z,18.66
2022-07-27T17:12:53.894Z,18.61
2022-07-27T17:15:20.941Z,18.59
2022-07-27T17:17:47.363Z,18.57
2022-07-27T17:20:13.782Z,18.48
2022-07-27T17:22:40.208Z,18.40
2022-07-27T17:25:07.134Z,18.30
2022-07-27T17:27:35.238Z,18.27
2022-07-27T17:30:03.683Z,18.23
2022-07-27T17:32:30.204Z,18.23
2022-07-27T17:34:56.643Z,18.20
2022-07-27T17:37:23.157Z,18.19
2022-07-27T17:39:49.589Z,18.17
2022-07-27T17:42:16.066Z,18.19
2022-07-27T17:44:44.558Z,18.11
2022-07-27T17:47:11.239Z,18.07
2022-07-27T17:49:37.702Z,18.05
2022-07-27T17:52:06.386Z,18.00
2022-07-27T17:54:32.803Z,17.96
2022-07-27T17:56:59.525Z,17.93
2022-07-27T17:59:37.493Z,17.89
2022-07-27T18:02:05.033Z,17.84
2022-07-27T18:04:35.606Z,17.92
2022-07-27T18:07:05.215Z,18.00
2022-07-27T18:09:31.747Z,17.98
2022-07-27T18:11:58.172Z,18.03
2022-07-27T18:14:24.796Z,18.02
2022-07-27T18:16:51.245Z,17.95
2022-07-27T18:19:17.750Z,17.93
2022-07-27T18:21:44.258Z,17.90
2022-07-27T18:24:10.690Z,17.90
2022-07-27T18:26:37.706Z,17.90
2022-07-27T18:29:05.976Z,17.90
2022-07-27T18:31:33.157Z,17.91
2022-07-27T18:34:01.505Z,17.91
2022-07-27T18:36:29.411Z,17.82
2022-07-27T18:38:55.932Z,17.81
2022-07-27T18:41:24.484Z,17.84
2022-07-27T18:43:51.249Z,17.82
2022-07-27T18:46:22.661Z,17.70
2022-07-27T18:48:49.799Z,17.70
2022-07-27T18:51:16.883Z,17.72
2022-07-27T18:53:44.123Z,17.72
2022-07-27T18:56:11.120Z,17.61
2022-07-27T18:58:40.488Z,17.51
2022-07-27T19:01:07.722Z,17.45
2022-07-27T19:03:34.266Z,17.39
2022-07-27T19:06:00.864Z,17.35
2022-07-27T19:08:27.377Z,17.29
2022-07-27T19:10:53.909Z,17.20
2022-07-27T19:13:21.089Z,17.16
2022-07-27T19:15:47.551Z,17.13
2022-07-27T19:18:13.971Z,17.12
2022-07-27T19:20:41.387Z,17.06
2022-07-27T19:23:07.883Z,16.98
2022-07-27T19:25:34.711Z,16.92
2022-07-27T19:28:02.039Z,16.89
2022-07-27T19:30:28.853Z,16.84
2022-07-27T19:32:56.369Z,16.79
2022-07-27T19:35:22.841Z,16.77
2022-07-27T19:37:49.304Z,16.71
2022-07-27T19:40:42.956Z,16.68
2022-07-27T19:43:06.847Z,16.61
2022-07-27T19:45:33.657Z,16.56
2022-07-27T19:48:01.569Z,16.50
2022-07-27T19:50:28.124Z,16.49
2022-07-27T19:52:54.936Z,16.44
2022-07-27T19:55:21.343Z,16.35
2022-07-27T19:57:47.738Z,16.29
2022-07-27T20:00:14.766Z,16.25
2022-07-27T20:02:41.302Z,16.19
2022-07-27T20:05:08.333Z,16.18
2022-07-27T20:07:34.965Z,16.19
2022-07-27T20:10:01.356Z,16.13
2022-07-27T20:12:27.769Z,16.07
2022-07-27T20:14:54.234Z,16.05
2022-07-27T20:17:20.804Z,16.03
2022-07-27T20:19:47.198Z,16.02
2022-07-27T20:22:13.697Z,15.99
2022-07-27T20:24:40.253Z,15.92
2022-07-27T20:27:06.678Z,15.90
2022-07-27T20:29:33.375Z,15.85
2022-07-27T20:31:59.925Z,15.82
2022-07-27T20:34:26.434Z,15.82
2022-07-27T20:36:54.040Z,15.77
2022-07-27T20:39:20.630Z,15.70
2022-07-27T20:41:47.443Z,15.70
2022-07-27T20:44:13.878Z,15.68
2022-07-27T20:46:40.320Z,15.64
2022-07-27T20:49:06.820Z,15.59
2022-07-27T20:51:33.314Z,15.55
2022-07-27T20:54:00.435Z,15.52
2022-07-27T20:56:26.894Z,15.47
2022-07-27T20:58:53.300Z,15.43
2022-07-27T21:01:19.792Z,15.39
2022-07-27T21:03:46.341Z,15.37
2022-07-27T21:06:12.743Z,15.32
2022-07-27T21:08:44.308Z,15.30
2022-07-27T21:11:13.541Z,15.30
2022-07-27T21:13:40.203Z,15.27
2022-07-27T21:16:06.738Z,15.23
2022-07-27T21:18:33.568Z,15.22
2022-07-27T21:21:00.014Z,15.19
2022-07-27T21:23:44.911Z,15.16
2022-07-27T21:26:11.469Z,15.19
2022-07-27T21:28:42.969Z,15.16
2022-07-27T21:31:09.571Z,15.17
2022-07-27T21:33:39.571Z,15.14
2022-07-27T21:36:06.911Z,15.10
2022-07-27T21:38:33.306Z,15.10
2022-07-27T21:40:59.724Z,15.11
2022-07-27T21:43:26.111Z,15.10
2022-07-27T21:45:52.583Z,15.09
2022-07-27T21:48:19.065Z,15.03
2022-07-27T21:50:45.570Z,15.06
2022-07-27T21:53:12.061Z,15.07
2022-07-27T21:55:40.887Z,15.06
2022-07-27T21:58:09.990Z,15.04
2022-07-27T22:00:36.465Z,14.99
2022-07-27T22:03:02.904Z,14.97
2022-07-27T22:05:29.372Z,14.97
2022-07-27T22:07:57.496Z,14.96
2022-07-27T22:10:23.912Z,14.93
2022-07-27T22:12:50.314Z,14.91
2022-07-27T22:15:16.720Z,14.90
2022-07-27T22:17:50.114Z,14.91
2022-07-27T22:20:17.312Z,14.90
2022-07-27T22:22:43.839Z,14.98
2022-07-27T22:25:10.656Z,14.96
2022-07-27T22:27:37.297Z,14.93
2022-07-27T22:30:04.283Z,14.95
2022-07-27T22:32:30.867Z,14.90
2022-07-27T22:34:57.292Z,14.82
2022-07-27T22:37:23.698Z,14.81
2022-07-27T22:39:50.169Z,14.79
2022-07-27T22:42:16.650Z,14.85
2022-07-27T22:44:43.340Z,14.83
2022-07-27T22:47:10.142Z,14.85
2022-07-27T22:49:36.637Z,14.83
2022-07-27T22:52:04.948Z,14.69
2022-07-27T22:54:39.357Z,14.74
2022-07-27T22:57:06.365Z,14.69
2022-07-27T22:59:33.733Z,14.68
2022-07-27T23:02:00.799Z,14.69
2022-07-27T23:04:27.480Z,14.67
2022-07-27T23:06:53.930Z,14.70
2022-07-27T23:09:20.411Z,14.65
2022-07-27T23:11:46.816Z,14.67
2022-07-27T23:14:13.697Z,14.63
2022-07-27T23:16:40.722Z,14.58
2022-07-27T23:19:07.700Z,14.53
2022-07-27T23:21:34.881Z,14.46
2022-07-27T23:24:04.898Z,14.42
2022-07-27T23:26:31.548Z,14.39
2022-07-27T23:28:58.124Z,14.40
2022-07-27T23:31:25.974Z,14.41
2022-07-27T23:33:52.502Z,14.43
2022-07-27T23:36:19.038Z,14.44
2022-07-27T23:38:45.503Z,14.45
2022-07-27T23:41:11.912Z,14.46
2022-07-27T23:43:38.700Z,14.43
2022-07-27T23:46:06.742Z,14.42
2022-07-27T23:48:33.320Z,14.44
2022-07-27T23:50:59.803Z,14.43
2022-07-27T23:53:27.130Z,14.43
2022-07-27T23:55:53.539Z,14.35
2022-07-27T23:58:20.406Z,14.29
